sensor_id;sensor_type;location;lat;lon;timestamp;pressure;altitude;pressure_sealevel;temperature;humidity
57644;BME280;43474;46.510;6.686;2023-05-03T00:02:09;96793.41;;;10.94;100.00
57644;BME280;43474;46.510;6.686;2023-05-03T00:04:35;96794.09;;;10.89;100.00
57644;BME280;43474;46.510;6.686;2023-05-03T00:07:02;96794.88;;;10.78;100.00
57644;BME280;43474;46.510;6.686;2023-05-03T00:09:28;96792.81;;;10.80;100.00
57644;BME280;43474;46.510;6.686;2023-05-03T00:11:54;96796.16;;;10.75;100.00
57644;BME280;43474;46.510;6.686;2023-05-03T00:14:19;96795.34;;;10.75;100.00
57644;BME280;43474;46.510;6.686;2023-05-03T00:16:45;96802.50;;;10.74;100.00
57644;BME280;43474;46.510;6.686;2023-05-03T00:19:10;96787.03;;;10.59;100.00
57644;BME280;43474;46.510;6.686;2023-05-03T00:21:36;96808.25;;;10.71;100.00
57644;BME280;43474;46.510;6.686;2023-05-03T00:24:01;96803.97;;;10.70;100.00
57644;BME280;43474;46.510;6.686;2023-05-03T00:26:28;96799.09;;;10.55;100.00
57644;BME280;43474;46.510;6.686;2023-05-03T00:28:53;96815.00;;;10.55;100.00
57644;BME280;43474;46.510;6.686;2023-05-03T00:31:19;96787.19;;;10.34;100.00
57644;BME280;43474;46.510;6.686;2023-05-03T00:33:44;96795.47;;;10.38;100.00
57644;BME280;43474;46.510;6.686;2023-05-03T00:36:12;96805.25;;;10.38;100.00
57644;BME280;43474;46.510;6.686;2023-05-03T00:38:39;96798.47;;;10.30;100.00
57644;BME280;43474;46.510;6.686;2023-05-03T00:41:05;96810.19;;;10.34;100.00
57644;BME280;43474;46.510;6.686;2023-05-03T00:43:31;96808.69;;;10.26;100.00
57644;BME280;43474;46.510;6.686;2023-05-03T00:45:59;96789.72;;;10.11;100.00
57644;BME280;43474;46.510;6.686;2023-05-03T00:48:25;96787.31;;;9.91;100.00
57644;BME280;43474;46.510;6.686;2023-05-03T00:50:51;96813.63;;;10.04;100.00
57644;BME280;43474;46.510;6.686;2023-05-03T00:53:20;96826.94;;;9.98;100.00
57644;BME280;43474;46.510;6.686;2023-05-03T00:55:46;96825.19;;;9.92;100.00
57644;BME280;43474;46.510;6.686;2023-05-03T00:58:11;96815.25;;;9.87;100.00
57644;BME280;43474;46.510;6.686;2023-05-03T01:00:37;96811.75;;;9.75;100.00
57644;BME280;43474;46.510;6.686;2023-05-03T01:03:02;96801.88;;;9.64;100.00
57644;BME280;43474;46.510;6.686;2023-05-03T01:05:32;96824.69;;;9.65;100.00
57644;BME280;43474;46.510;6.686;2023-05-03T01:08:14;96824.91;;;9.63;100.00
57644;BME280;43474;46.510;6.686;2023-05-03T01:10:49;96820.88;;;9.61;100.00
57644;BME280;43474;46.510;6.686;2023-05-03T01:13:48;96825.56;;;9.58;100.00
57644;BME280;43474;46.510;6.686;2023-05-03T01:16:25;96817.13;;;9.50;100.00
57644;BME280;43474;46.510;6.686;2023-05-03T01:18:54;96818.13;;;9.49;100.00
57644;BME280;43474;46.510;6.686;2023-05-03T01:21:22;96805.78;;;9.43;100.00
57644;BME280;43474;46.510;6.686;2023-05-03T01:23:56;96815.31;;;9.44;100.00
57644;BME280;43474;46.510;6.686;2023-05-03T01:26:26;96807.09;;;9.33;100.00
57644;BME280;43474;46.510;6.686;2023-05-03T01:28:52;96789.47;;;9.27;100.00
57644;BME280;43474;46.510;6.686;2023-05-03T01:31:22;96795.13;;;9.31;100.00
57644;BME280;43474;46.510;6.686;2023-05-03T01:33:57;96797.38;;;9.27;100.00
57644;BME280;43474;46.510;6.686;2023-05-03T01:36:29;96807.69;;;9.36;100.00
57644;BME280;43474;46.510;6.686;2023-05-03T01:38:58;96805.19;;;9.41;100.00
57644;BME280;43474;46.510;6.686;2023-05-03T01:41:25;96812.91;;;9.42;100.00
57644;BME280;43474;46.510;6.686;2023-05-03T01:43:53;96801.13;;;9.38;100.00
57644;BME280;43474;46.510;6.686;2023-05-03T01:46:19;96773.97;;;9.31;100.00
57644;BME280;43474;46.510;6.686;2023-05-03T01:48:46;96809.22;;;9.43;100.00
57644;BME280;43474;46.510;6.686;2023-05-03T01:51:12;96805.94;;;9.48;100.00
57644;BME280;43474;46.510;6.686;2023-05-03T01:53:37;96802.59;;;9.34;100.00
57644;BME280;43474;46.510;6.686;2023-05-03T01:56:03;96801.66;;;9.28;100.00
57644;BME280;43474;46.510;6.686;2023-05-03T01:58:28;96799.31;;;9.20;100.00
57644;BME280;43474;46.510;6.686;2023-05-03T02:00:55;96809.66;;;9.22;100.00
57644;BME280;43474;46.510;6.686;2023-05-03T02:03:20;96813.53;;;9.19;100.00
57644;BME280;43474;46.510;6.686;2023-05-03T02:05:47;96803.75;;;9.20;100.00
57644;BME280;43474;46.510;6.686;2023-05-03T02:08:12;96802.78;;;9.14;100.00
57644;BME280;43474;46.510;6.686;2023-05-03T02:10:38;96796.66;;;9.20;100.00
57644;BME280;43474;46.510;6.686;2023-05-03T02:13:03;96801.66;;;9.28;100.00
57644;BME280;43474;46.510;6.686;2023-05-03T02:15:29;96797.81;;;9.24;100.00
57644;BME280;43474;46.510;6.686;2023-05-03T02:17:56;96782.19;;;9.23;100.00
57644;BME280;43474;46.510;6.686;2023-05-03T02:20:23;96791.53;;;9.25;100.00
57644;BME280;43474;46.510;6.686;2023-05-03T02:22:48;96774.31;;;9.16;100.00
57644;BME280;43474;46.510;6.686;2023-05-03T02:25:14;96773.06;;;9.19;100.00
57644;BME280;43474;46.510;6.686;2023-05-03T02:27:39;96779.59;;;9.35;100.00
57644;BME280;43474;46.510;6.686;2023-05-03T02:30:06;96767.91;;;9.24;100.00
57644;BME280;43474;46.510;6.686;2023-05-03T02:32:32;96788.81;;;9.32;100.00
57644;BME280;43474;46.510;6.686;2023-05-03T02:34:57;96782.47;;;9.33;100.00
57644;BME280;43474;46.510;6.686;2023-05-03T02:37:23;96769.44;;;9.13;100.00
57644;BME280;43474;46.510;6.686;2023-05-03T02:39:49;96781.44;;;9.16;100.00
57644;BME280;43474;46.510;6.686;2023-05-03T02:42:14;96790.59;;;9.13;100.00
57644;BME280;43474;46.510;6.686;2023-05-03T02:44:40;96790.28;;;9.03;100.00
57644;BME280;43474;46.510;6.686;2023-05-03T02:47:06;96772.91;;;8.95;100.00
57644;BME280;43474;46.510;6.686;2023-05-03T02:49:31;96790.72;;;9.00;100.00
57644;BME280;43474;46.510;6.686;2023-05-03T02:51:57;96770.56;;;8.80;100.00
57644;BME280;43474;46.510;6.686;2023-05-03T02:54:23;96795.31;;;8.86;100.00
57644;BME280;43474;46.510;6.686;2023-05-03T02:56:48;96797.19;;;8.79;100.00
57644;BME280;43474;46.510;6.686;2023-05-03T02:59:14;96790.56;;;8.70;100.00
57644;BME280;43474;46.510;6.686;2023-05-03T03:01:39;96782.13;;;8.54;100.00
57644;BME280;43474;46.510;6.686;2023-05-03T03:04:05;96776.50;;;8.51;100.00
57644;BME280;43474;46.510;6.686;2023-05-03T03:06:31;96793.59;;;8.73;100.00
57644;BME280;43474;46.510;6.686;2023-05-03T03:08:57;96779.09;;;8.58;100.00
57644;BME280;43474;46.510;6.686;2023-05-03T03:11:22;96797.25;;;8.72;100.00
57644;BME280;43474;46.510;6.686;2023-05-03T03:13:48;96790.88;;;8.80;100.00
57644;BME280;43474;46.510;6.686;2023-05-03T03:16:14;96784.59;;;8.81;100.00
57644;BME280;43474;46.510;6.686;2023-05-03T03:18:39;96775.31;;;8.72;100.00
57644;BME280;43474;46.510;6.686;2023-05-03T03:21:05;96777.00;;;8.66;100.00
57644;BME280;43474;46.510;6.686;2023-05-03T03:23:30;96768.69;;;8.63;100.00
57644;BME280;43474;46.510;6.686;2023-05-03T03:25:56;96789.56;;;8.71;100.00
57644;BME280;43474;46.510;6.686;2023-05-03T03:28:22;96786.91;;;8.71;100.00
57644;BME280;43474;46.510;6.686;2023-05-03T03:30:47;96790.94;;;8.73;100.00
57644;BME280;43474;46.510;6.686;2023-05-03T03:33:13;96796.00;;;8.75;100.00
57644;BME280;43474;46.510;6.686;2023-05-03T03:35:39;96766.63;;;8.65;100.00
57644;BME280;43474;46.510;6.686;2023-05-03T03:38:05;96795.19;;;8.74;100.00
57644;BME280;43474;46.510;6.686;2023-05-03T03:40:30;96796.63;;;8.77;100.00
57644;BME280;43474;46.510;6.686;2023-05-03T03:42:56;96774.28;;;8.73;100.00
57644;BME280;43474;46.510;6.686;2023-05-03T03:45:22;96779.50;;;8.79;100.00
57644;BME280;43474;46.510;6.686;2023-05-03T03:47:47;96792.94;;;8.78;100.00
57644;BME280;43474;46.510;6.686;2023-05-03T03:50:13;96798.00;;;8.79;100.00
57644;BME280;43474;46.510;6.686;2023-05-03T03:52:38;96792.19;;;8.71;100.00
57644;BME280;43474;46.510;6.686;2023-05-03T03:55:04;96787.91;;;8.70;100.00
57644;BME280;43474;46.510;6.686;2023-05-03T03:57:31;96799.97;;;8.66;100.00
57644;BME280;43474;46.510;6.686;2023-05-03T03:59:57;96803.59;;;8.65;100.00
57644;BME280;43474;46.510;6.686;2023-05-03T04:02:24;96803.06;;;8.56;100.00
57644;BME280;43474;46.510;6.686;2023-05-03T04:04:50;96811.34;;;8.66;100.00
57644;BME280;43474;46.510;6.686;2023-05-03T04:07:15;96807.28;;;8.64;100.00
57644;BME280;43474;46.510;6.686;2023-05-03T04:09:41;96809.13;;;8.63;100.00
57644;BME280;43474;46.510;6.686;2023-05-03T04:12:07;96811.59;;;8.58;100.00
57644;BME280;43474;46.510;6.686;2023-05-03T04:14:32;96816.88;;;8.58;100.00
57644;BME280;43474;46.510;6.686;2023-05-03T04:16:58;96821.41;;;8.51;100.00
57644;BME280;43474;46.510;6.686;2023-05-03T04:19:24;96816.94;;;8.45;100.00
57644;BME280;43474;46.510;6.686;2023-05-03T04:21:51;96828.75;;;8.42;100.00
57644;BME280;43474;46.510;6.686;2023-05-03T04:24:16;96822.50;;;8.37;100.00
57644;BME280;43474;46.510;6.686;2023-05-03T04:26:42;96824.47;;;8.48;100.00
57644;BME280;43474;46.510;6.686;2023-05-03T04:29:08;96810.09;;;8.37;100.00
57644;BME280;43474;46.510;6.686;2023-05-03T04:31:37;96826.13;;;8.42;100.00
57644;BME280;43474;46.510;6.686;2023-05-03T04:34:04;96826.50;;;8.46;100.00
57644;BME280;43474;46.510;6.686;2023-05-03T04:36:30;96829.78;;;8.41;100.00
57644;BME280;43474;46.510;6.686;2023-05-03T04:38:56;96826.31;;;8.34;100.00
57644;BME280;43474;46.510;6.686;2023-05-03T04:41:23;96817.66;;;8.27;100.00
57644;BME280;43474;46.510;6.686;2023-05-03T04:43:51;96828.22;;;8.27;100.00
57644;BME280;43474;46.510;6.686;2023-05-03T04:46:17;96834.50;;;8.26;100.00
57644;BME280;43474;46.510;6.686;2023-05-03T04:48:44;96834.31;;;8.27;100.00
57644;BME280;43474;46.510;6.686;2023-05-03T04:51:09;96834.50;;;8.26;100.00
57644;BME280;43474;46.510;6.686;2023-05-03T04:53:40;96830.22;;;8.25;100.00
57644;BME280;43474;46.510;6.686;2023-05-03T04:56:06;96834.34;;;8.21;100.00
57644;BME280;43474;46.510;6.686;2023-05-03T04:58:32;96832.13;;;8.18;100.00
57644;BME280;43474;46.510;6.686;2023-05-03T05:00:57;96832.91;;;8.18;100.00
57644;BME280;43474;46.510;6.686;2023-05-03T05:03:23;96829.47;;;8.18;100.00
57644;BME280;43474;46.510;6.686;2023-05-03T05:05:49;96845.72;;;8.21;100.00
57644;BME280;43474;46.510;6.686;2023-05-03T05:08:15;96844.44;;;8.31;100.00
57644;BME280;43474;46.510;6.686;2023-05-03T05:10:41;96833.50;;;8.27;100.00
57644;BME280;43474;46.510;6.686;2023-05-03T05:13:06;96829.25;;;8.19;100.00
57644;BME280;43474;46.510;6.686;2023-05-03T05:15:32;96840.56;;;8.33;100.00
57644;BME280;43474;46.510;6.686;2023-05-03T05:17:58;96854.38;;;8.42;100.00
57644;BME280;43474;46.510;6.686;2023-05-03T05:20:24;96851.31;;;8.38;100.00
57644;BME280;43474;46.510;6.686;2023-05-03T05:22:50;96850.91;;;8.41;100.00
57644;BME280;43474;46.510;6.686;2023-05-03T05:25:15;96856.78;;;8.43;100.00
57644;BME280;43474;46.510;6.686;2023-05-03T05:27:41;96860.16;;;8.57;100.00
57644;BME280;43474;46.510;6.686;2023-05-03T05:30:07;96858.56;;;8.56;100.00
57644;BME280;43474;46.510;6.686;2023-05-03T05:32:33;96865.31;;;8.77;100.00
57644;BME280;43474;46.510;6.686;2023-05-03T05:34:58;96869.19;;;8.74;100.00
57644;BME280;43474;46.510;6.686;2023-05-03T05:37:24;96854.28;;;8.87;100.00
57644;BME280;43474;46.510;6.686;2023-05-03T05:39:50;96867.34;;;9.06;100.00
57644;BME280;43474;46.510;6.686;2023-05-03T05:42:16;96858.53;;;9.13;100.00
57644;BME280;43474;46.510;6.686;2023-05-03T05:44:41;96861.19;;;9.13;100.00
57644;BME280;43474;46.510;6.686;2023-05-03T05:47:08;96876.16;;;9.25;100.00
57644;BME280;43474;46.510;6.686;2023-05-03T05:49:34;96867.81;;;9.22;100.00
57644;BME280;43474;46.510;6.686;2023-05-03T05:52:00;96873.44;;;9.32;100.00
57644;BME280;43474;46.510;6.686;2023-05-03T05:54:26;96882.00;;;9.52;100.00
57644;BME280;43474;46.510;6.686;2023-05-03T05:56:51;96886.22;;;9.60;100.00
57644;BME280;43474;46.510;6.686;2023-05-03T05:59:17;96872.22;;;9.53;100.00
57644;BME280;43474;46.510;6.686;2023-05-03T06:01:43;96882.91;;;9.65;100.00
57644;BME280;43474;46.510;6.686;2023-05-03T06:04:11;96866.56;;;9.68;100.00
57644;BME280;43474;46.510;6.686;2023-05-03T06:06:37;96867.78;;;9.90;100.00
57644;BME280;43474;46.510;6.686;2023-05-03T06:09:02;96845.03;;;9.82;100.00
57644;BME280;43474;46.510;6.686;2023-05-03T06:11:28;96875.53;;;10.22;100.00
57644;BME280;43474;46.510;6.686;2023-05-03T06:13:54;96883.13;;;10.37;100.00
57644;BME280;43474;46.510;6.686;2023-05-03T06:16:23;96873.38;;;10.49;100.00
57644;BME280;43474;46.510;6.686;2023-05-03T06:18:49;96868.06;;;10.79;100.00
57644;BME280;43474;46.510;6.686;2023-05-03T06:21:15;96864.13;;;11.47;100.00
57644;BME280;43474;46.510;6.686;2023-05-03T06:23:41;96849.56;;;12.65;100.00
57644;BME280;43474;46.510;6.686;2023-05-03T06:26:07;96851.41;;;13.82;100.00
57644;BME280;43474;46.510;6.686;2023-05-03T06:28:33;96851.03;;;15.20;95.15
57644;BME280;43474;46.510;6.686;2023-05-03T06:30:59;96862.84;;;15.62;88.37
57644;BME280;43474;46.510;6.686;2023-05-03T06:33:25;96869.41;;;16.39;81.79
57644;BME280;43474;46.510;6.686;2023-05-03T06:35:51;96869.00;;;16.72;80.10
57644;BME280;43474;46.510;6.686;2023-05-03T06:38:17;96852.47;;;17.11;78.64
57644;BME280;43474;46.510;6.686;2023-05-03T06:40:46;96840.88;;;17.82;73.29
57644;BME280;43474;46.510;6.686;2023-05-03T06:43:11;96839.88;;;18.38;72.67
57644;BME280;43474;46.510;6.686;2023-05-03T06:45:41;96848.75;;;18.28;70.52
57644;BME280;43474;46.510;6.686;2023-05-03T06:48:08;96847.53;;;18.70;67.96
57644;BME280;43474;46.510;6.686;2023-05-03T06:50:34;96836.94;;;18.83;68.57
57644;BME280;43474;46.510;6.686;2023-05-03T06:53:00;96837.06;;;19.07;64.50
57644;BME280;43474;46.510;6.686;2023-05-03T06:55:26;96839.00;;;18.97;65.09
57644;BME280;43474;46.510;6.686;2023-05-03T06:57:52;96848.13;;;19.35;65.40
57644;BME280;43474;46.510;6.686;2023-05-03T07:00:18;96846.38;;;19.49;64.55
57644;BME280;43474;46.510;6.686;2023-05-03T07:02:46;96826.19;;;19.23;63.80
57644;BME280;43474;46.510;6.686;2023-05-03T07:05:11;96818.88;;;19.86;60.42
57644;BME280;43474;46.510;6.686;2023-05-03T07:07:37;96828.09;;;20.04;60.60
57644;BME280;43474;46.510;6.686;2023-05-03T07:10:04;96809.75;;;20.30;57.63
57644;BME280;43474;46.510;6.686;2023-05-03T07:12:29;96812.69;;;20.53;59.47
57644;BME280;43474;46.510;6.686;2023-05-03T07:14:55;96810.66;;;20.82;59.23
57644;BME280;43474;46.510;6.686;2023-05-03T07:17:21;96815.81;;;21.49;59.15
57644;BME280;43474;46.510;6.686;2023-05-03T07:19:48;96814.31;;;21.57;56.25
57644;BME280;43474;46.510;6.686;2023-05-03T07:22:15;96809.06;;;21.33;56.58
57644;BME280;43474;46.510;6.686;2023-05-03T07:24:41;96797.84;;;21.58;52.56
57644;BME280;43474;46.510;6.686;2023-05-03T07:27:07;96806.59;;;21.17;55.74
57644;BME280;43474;46.510;6.686;2023-05-03T07:29:33;96816.41;;;21.46;55.85
57644;BME280;43474;46.510;6.686;2023-05-03T07:31:59;96800.56;;;21.58;54.76
57644;BME280;43474;46.510;6.686;2023-05-03T07:34:24;96807.88;;;22.27;54.25
57644;BME280;43474;46.510;6.686;2023-05-03T07:36:51;96798.69;;;22.14;52.15
57644;BME280;43474;46.510;6.686;2023-05-03T07:39:17;96793.97;;;22.06;49.95
57644;BME280;43474;46.510;6.686;2023-05-03T07:41:43;96795.88;;;22.33;52.12
57644;BME280;43474;46.510;6.686;2023-05-03T07:44:08;96794.88;;;22.65;53.52
57644;BME280;43474;46.510;6.686;2023-05-03T07:46:34;96784.22;;;22.46;51.23
57644;BME280;43474;46.510;6.686;2023-05-03T07:49:01;96779.88;;;21.95;49.22
57644;BME280;43474;46.510;6.686;2023-05-03T07:51:27;96793.25;;;22.28;51.97
57644;BME280;43474;46.510;6.686;2023-05-03T07:53:53;96779.44;;;22.79;50.35
57644;BME280;43474;46.510;6.686;2023-05-03T07:56:22;96775.84;;;22.70;54.55
57644;BME280;43474;46.510;6.686;2023-05-03T07:58:47;96789.88;;;22.08;51.95
57644;BME280;43474;46.510;6.686;2023-05-03T08:01:13;96791.66;;;21.85;52.16
57644;BME280;43474;46.510;6.686;2023-05-03T08:03:38;96776.75;;;21.60;51.22
57644;BME280;43474;46.510;6.686;2023-05-03T08:06:04;96789.75;;;21.58;52.46
57644;BME280;43474;46.510;6.686;2023-05-03T08:08:30;96782.56;;;21.21;53.07
57644;BME280;43474;46.510;6.686;2023-05-03T08:10:56;96791.78;;;20.45;53.31
57644;BME280;43474;46.510;6.686;2023-05-03T08:13:22;96794.06;;;20.56;54.63
57644;BME280;43474;46.510;6.686;2023-05-03T08:15:48;96801.41;;;20.88;54.75
57644;BME280;43474;46.510;6.686;2023-05-03T08:18:14;96802.44;;;20.55;57.08
57644;BME280;43474;46.510;6.686;2023-05-03T08:20:40;96792.97;;;20.57;53.61
57644;BME280;43474;46.510;6.686;2023-05-03T08:23:06;96771.69;;;20.37;55.96
57644;BME280;43474;46.510;6.686;2023-05-03T08:25:32;96801.34;;;20.56;52.20
57644;BME280;43474;46.510;6.686;2023-05-03T08:27:58;96791.69;;;20.31;55.31
57644;BME280;43474;46.510;6.686;2023-05-03T08:30:24;96787.34;;;20.73;55.13
57644;BME280;43474;46.510;6.686;2023-05-03T08:32:51;96779.28;;;20.73;54.67
57644;BME280;43474;46.510;6.686;2023-05-03T08:35:16;96771.13;;;20.40;55.90
57644;BME280;43474;46.510;6.686;2023-05-03T08:37:43;96785.66;;;20.96;57.94
57644;BME280;43474;46.510;6.686;2023-05-03T08:40:10;96786.25;;;21.25;55.82
57644;BME280;43474;46.510;6.686;2023-05-03T08:42:42;96796.16;;;20.97;54.31
57644;BME280;43474;46.510;6.686;2023-05-03T08:45:13;96795.59;;;20.62;54.33
57644;BME280;43474;46.510;6.686;2023-05-03T08:47:41;96791.66;;;21.25;56.36
57644;BME280;43474;46.510;6.686;2023-05-03T08:50:10;96805.91;;;20.93;52.15
57644;BME280;43474;46.510;6.686;2023-05-03T08:52:38;96795.59;;;20.62;55.32
57644;BME280;43474;46.510;6.686;2023-05-03T08:55:04;96783.59;;;20.12;54.17
57644;BME280;43474;46.510;6.686;2023-05-03T08:57:30;96791.38;;;20.13;52.02
57644;BME280;43474;46.510;6.686;2023-05-03T08:59:58;96795.34;;;19.97;53.76
57644;BME280;43474;46.510;6.686;2023-05-03T09:02:26;96787.25;;;20.21;54.18
57644;BME280;43474;46.510;6.686;2023-05-03T09:04:55;96779.00;;;20.12;55.07
57644;BME280;43474;46.510;6.686;2023-05-03T09:07:21;96784.56;;;20.21;54.49
57644;BME280;43474;46.510;6.686;2023-05-03T09:09:47;96787.84;;;20.37;51.90
57644;BME280;43474;46.510;6.686;2023-05-03T09:12:32;96802.22;;;20.27;52.17
57644;BME280;43474;46.510;6.686;2023-05-03T09:14:58;96798.72;;;20.08;54.47
57644;BME280;43474;46.510;6.686;2023-05-03T09:17:23;96797.13;;;19.83;54.50
57644;BME280;43474;46.510;6.686;2023-05-03T09:19:54;96794.75;;;20.24;55.04
57644;BME280;43474;46.510;6.686;2023-05-03T09:22:26;96797.84;;;20.12;53.87
57644;BME280;43474;46.510;6.686;2023-05-03T09:24:54;96806.38;;;20.62;59.32
57644;BME280;43474;46.510;6.686;2023-05-03T09:27:22;96795.34;;;19.97;54.61
57644;BME280;43474;46.510;6.686;2023-05-03T09:29:49;96790.75;;;20.40;57.39
57644;BME280;43474;46.510;6.686;2023-05-03T09:32:15;96798.72;;;20.08;54.44
57644;BME280;43474;46.510;6.686;2023-05-03T09:34:42;96807.88;;;20.07;53.38
57644;BME280;43474;46.510;6.686;2023-05-03T09:37:08;96792.25;;;20.09;53.65
57644;BME280;43474;46.510;6.686;2023-05-03T09:39:34;96812.59;;;20.39;53.64
57644;BME280;43474;46.510;6.686;2023-05-03T09:42:14;96802.25;;;20.03;50.61
57644;BME280;43474;46.510;6.686;2023-05-03T09:44:49;96798.44;;;20.09;52.81
57644;BME280;43474;46.510;6.686;2023-05-03T09:47:18;96803.31;;;19.59;56.29
57644;BME280;43474;46.510;6.686;2023-05-03T09:49:44;96812.84;;;19.42;54.22
57644;BME280;43474;46.510;6.686;2023-05-03T09:52:10;96817.59;;;19.79;54.83
57644;BME280;43474;46.510;6.686;2023-05-03T09:54:37;96815.84;;;20.36;54.57
57644;BME280;43474;46.510;6.686;2023-05-03T09:57:04;96802.31;;;20.65;55.43
57644;BME280;43474;46.510;6.686;2023-05-03T09:59:31;96812.13;;;20.75;55.86
57644;BME280;43474;46.510;6.686;2023-05-03T10:01:58;96802.03;;;20.43;55.95
57644;BME280;43474;46.510;6.686;2023-05-03T10:04:26;96826.94;;;20.53;53.86
57644;BME280;43474;46.510;6.686;2023-05-03T10:06:55;96816.41;;;19.90;55.41
57644;BME280;43474;46.510;6.686;2023-05-03T10:09:37;96825.06;;;20.73;57.65
57644;BME280;43474;46.510;6.686;2023-05-03T10:12:07;96815.69;;;20.89;54.17
57644;BME280;43474;46.510;6.686;2023-05-03T10:14:34;96825.28;;;21.28;53.80
57644;BME280;43474;46.510;6.686;2023-05-03T10:17:03;96814.09;;;21.21;56.88
57644;BME280;43474;46.510;6.686;2023-05-03T10:19:37;96817.06;;;20.68;57.97
57644;BME280;43474;46.510;6.686;2023-05-03T10:22:09;96812.06;;;20.61;55.04
57644;BME280;43474;46.510;6.686;2023-05-03T10:24:36;96821.19;;;20.98;57.61
57644;BME280;43474;46.510;6.686;2023-05-03T10:27:05;96801.50;;;21.35;54.83
57644;BME280;43474;46.510;6.686;2023-05-03T10:32:05;96823.84;;;21.82;56.67
57644;BME280;43474;46.510;6.686;2023-05-03T10:34:58;96800.16;;;21.65;55.53
57644;BME280;43474;46.510;6.686;2023-05-03T10:37:26;96813.56;;;21.84;53.92
57644;BME280;43474;46.510;6.686;2023-05-03T10:39:53;96813.78;;;21.22;55.73
57644;BME280;43474;46.510;6.686;2023-05-03T10:42:21;96803.41;;;21.34;53.61
57644;BME280;43474;46.510;6.686;2023-05-03T10:47:32;96793.00;;;21.41;54.80
57644;BME280;43474;46.510;6.686;2023-05-03T10:55:16;96784.38;;;21.58;52.23
57644;BME280;43474;46.510;6.686;2023-05-03T10:57:44;96788.00;;;21.35;55.75
57644;BME280;43474;46.510;6.686;2023-05-03T11:00:30;96788.03;;;21.16;54.16
57644;BME280;43474;46.510;6.686;2023-05-03T11:05:50;96774.78;;;21.66;54.44
57644;BME280;43474;46.510;6.686;2023-05-03T11:08:18;96774.56;;;21.62;52.48
57644;BME280;43474;46.510;6.686;2023-05-03T11:10:45;96773.94;;;21.52;56.05
57644;BME280;43474;46.510;6.686;2023-05-03T11:13:11;96780.19;;;21.80;57.74
57644;BME280;43474;46.510;6.686;2023-05-03T11:15:37;96770.75;;;21.50;53.82
57644;BME280;43474;46.510;6.686;2023-05-03T11:18:07;96771.94;;;21.57;56.00
57644;BME280;43474;46.510;6.686;2023-05-03T11:20:34;96775.97;;;21.87;58.79
57644;BME280;43474;46.510;6.686;2023-05-03T11:23:00;96766.38;;;21.54;55.51
57644;BME280;43474;46.510;6.686;2023-05-03T11:25:29;96757.03;;;21.32;56.63
57644;BME280;43474;46.510;6.686;2023-05-03T11:27:55;96768.09;;;21.63;57.17
57644;BME280;43474;46.510;6.686;2023-05-03T11:30:21;96760.97;;;21.67;55.15
57644;BME280;43474;46.510;6.686;2023-05-03T11:32:46;96763.66;;;21.67;54.60
57644;BME280;43474;46.510;6.686;2023-05-03T11:35:12;96763.94;;;21.06;56.16
57644;BME280;43474;46.510;6.686;2023-05-03T11:37:40;96756.81;;;20.96;53.80
57644;BME280;43474;46.510;6.686;2023-05-03T11:40:13;96762.38;;;21.51;57.33
57644;BME280;43474;46.510;6.686;2023-05-03T11:42:56;96753.59;;;21.59;56.71
57644;BME280;43474;46.510;6.686;2023-05-03T11:45:47;96759.00;;;21.59;57.80
57644;BME280;43474;46.510;6.686;2023-05-03T11:48:15;96749.91;;;21.23;54.06
57644;BME280;43474;46.510;6.686;2023-05-03T11:50:46;96736.63;;;21.26;57.30
57644;BME280;43474;46.510;6.686;2023-05-03T11:53:15;96756.94;;;21.37;58.60
57644;BME280;43474;46.510;6.686;2023-05-03T11:55:44;96743.50;;;21.51;58.70
57644;BME280;43474;46.510;6.686;2023-05-03T11:58:20;96754.09;;;21.61;57.54
57644;BME280;43474;46.510;6.686;2023-05-03T12:00:47;96753.41;;;21.70;57.78
57644;BME280;43474;46.510;6.686;2023-05-03T12:03:27;96745.69;;;21.63;58.78
57644;BME280;43474;46.510;6.686;2023-05-03T12:05:54;96752.69;;;21.78;59.01
57644;BME280;43474;46.510;6.686;2023-05-03T12:08:20;96752.16;;;21.34;59.13
57644;BME280;43474;46.510;6.686;2023-05-03T12:10:49;96749.66;;;21.38;57.93
57644;BME280;43474;46.510;6.686;2023-05-03T12:13:26;96736.00;;;21.62;56.62
57644;BME280;43474;46.510;6.686;2023-05-03T12:15:56;96737.31;;;21.64;59.89
57644;BME280;43474;46.510;6.686;2023-05-03T12:18:23;96730.81;;;21.65;58.79
57644;BME280;43474;46.510;6.686;2023-05-03T12:20:54;96740.22;;;21.22;54.37
57644;BME280;43474;46.510;6.686;2023-05-03T12:23:23;96742.91;;;21.22;56.65
57644;BME280;43474;46.510;6.686;2023-05-03T12:25:50;96728.25;;;21.14;58.23
57644;BME280;43474;46.510;6.686;2023-05-03T12:28:16;96731.31;;;21.40;59.08
57644;BME280;43474;46.510;6.686;2023-05-03T12:30:42;96721.31;;;21.08;59.46
57644;BME280;43474;46.510;6.686;2023-05-03T12:33:08;96726.03;;;21.16;59.66
57644;BME280;43474;46.510;6.686;2023-05-03T12:35:34;96719.13;;;21.56;56.42
57644;BME280;43474;46.510;6.686;2023-05-03T12:37:59;96720.03;;;21.65;55.88
57644;BME280;43474;46.510;6.686;2023-05-03T12:40:27;96722.38;;;21.26;53.66
57644;BME280;43474;46.510;6.686;2023-05-03T12:42:53;96715.75;;;21.18;56.84
57644;BME280;43474;46.510;6.686;2023-05-03T12:45:20;96719.41;;;21.41;57.50
57644;BME280;43474;46.510;6.686;2023-05-03T12:47:46;96714.50;;;21.43;56.71
57644;BME280;43474;46.510;6.686;2023-05-03T12:50:12;96718.06;;;21.25;57.09
57644;BME280;43474;46.510;6.686;2023-05-03T12:52:37;96705.09;;;21.27;62.15
57644;BME280;43474;46.510;6.686;2023-05-03T12:55:04;96700.31;;;21.24;58.28
57644;BME280;43474;46.510;6.686;2023-05-03T12:57:31;96707.94;;;21.35;59.44
57644;BME280;43474;46.510;6.686;2023-05-03T12:59:56;96694.75;;;21.48;61.72
57644;BME280;43474;46.510;6.686;2023-05-03T13:02:22;96690.03;;;21.67;57.28
57644;BME280;43474;46.510;6.686;2023-05-03T13:04:48;96698.34;;;21.43;57.23
57644;BME280;43474;46.510;6.686;2023-05-03T13:07:23;96697.66;;;21.51;59.45
57644;BME280;43474;46.510;6.686;2023-05-03T13:09:53;96689.97;;;21.45;57.80
57644;BME280;43474;46.510;6.686;2023-05-03T13:12:19;96685.38;;;21.45;59.24
57644;BME280;43474;46.510;6.686;2023-05-03T13:14:49;96680.34;;;21.52;58.74